sensor_id;sensor_type;location;lat;lon;timestamp;temperature;humidity
34766;DHT22;20984;43.508;1.504;2023-03-13T00:01:11;10.60;99.90
34766;DHT22;20984;43.508;1.504;2023-03-13T00:03:37;10.60;99.90
34766;DHT22;20984;43.508;1.504;2023-03-13T00:06:02;10.50;99.90
34766;DHT22;20984;43.508;1.504;2023-03-13T00:08:28;10.60;99.90
34766;DHT22;20984;43.508;1.504;2023-03-13T00:10:54;10.50;99.90
34766;DHT22;20984;43.508;1.504;2023-03-13T00:13:20;10.50;99.90
34766;DHT22;20984;43.508;1.504;2023-03-13T00:15:46;10.50;99.90
34766;DHT22;20984;43.508;1.504;2023-03-13T00:18:12;10.50;99.90
34766;DHT22;20984;43.508;1.504;2023-03-13T00:20:38;10.60;99.90
34766;DHT22;20984;43.508;1.504;2023-03-13T00:23:04;10.60;99.90
34766;DHT22;20984;43.508;1.504;2023-03-13T00:25:29;10.60;99.90
34766;DHT22;20984;43.508;1.504;2023-03-13T00:27:55;10.50;99.90
34766;DHT22;20984;43.508;1.504;2023-03-13T00:30:21;10.50;99.90
34766;DHT22;20984;43.508;1.504;2023-03-13T00:32:46;10.40;99.90
34766;DHT22;20984;43.508;1.504;2023-03-13T00:35:13;10.40;99.90
34766;DHT22;20984;43.508;1.504;2023-03-13T00:37:39;10.30;99.90
34766;DHT22;20984;43.508;1.504;2023-03-13T00:40:06;10.30;99.90
34766;DHT22;20984;43.508;1.504;2023-03-13T00:42:32;10.30;99.90
34766;DHT22;20984;43.508;1.504;2023-03-13T00:44:58;10.30;99.90
34766;DHT22;20984;43.508;1.504;2023-03-13T00:47:24;10.20;99.90
34766;DHT22;20984;43.508;1.504;2023-03-13T00:49:49;10.10;99.90
34766;DHT22;20984;43.508;1.504;2023-03-13T00:52:15;10.10;99.90
34766;DHT22;20984;43.508;1.504;2023-03-13T00:54:41;10.00;99.90
34766;DHT22;20984;43.508;1.504;2023-03-13T00:57:07;10.00;99.90
34766;DHT22;20984;43.508;1.504;2023-03-13T00:59:33;10.00;99.90
34766;DHT22;20984;43.508;1.504;2023-03-13T01:01:59;9.90;99.90
34766;DHT22;20984;43.508;1.504;2023-03-13T01:04:25;9.90;99.90
34766;DHT22;20984;43.508;1.504;2023-03-13T01:06:50;9.80;99.90
34766;DHT22;20984;43.508;1.504;2023-03-13T01:09:16;9.80;99.90
34766;DHT22;20984;43.508;1.504;2023-03-13T01:11:43;9.70;99.90
34766;DHT22;20984;43.508;1.504;2023-03-13T01:14:12;9.70;99.90
34766;DHT22;20984;43.508;1.504;2023-03-13T01:16:39;9.60;99.90
34766;DHT22;20984;43.508;1.504;2023-03-13T01:19:08;9.60;99.90
34766;DHT22;20984;43.508;1.504;2023-03-13T01:21:34;9.60;99.90
34766;DHT22;20984;43.508;1.504;2023-03-13T01:24:00;9.50;99.90
34766;DHT22;20984;43.508;1.504;2023-03-13T01:26:26;9.50;99.90
34766;DHT22;20984;43.508;1.504;2023-03-13T01:28:53;9.40;99.90
34766;DHT22;20984;43.508;1.504;2023-03-13T01:33:52;9.40;99.90
34766;DHT22;20984;43.508;1.504;2023-03-13T01:36:18;9.40;99.90
34766;DHT22;20984;43.508;1.504;2023-03-13T01:38:47;9.40;99.90
34766;DHT22;20984;43.508;1.504;2023-03-13T01:41:13;9.40;99.90
34766;DHT22;20984;43.508;1.504;2023-03-13T01:43:39;9.40;99.90
34766;DHT22;20984;43.508;1.504;2023-03-13T01:46:14;9.40;99.90
34766;DHT22;20984;43.508;1.504;2023-03-13T01:48:51;9.40;99.90
34766;DHT22;20984;43.508;1.504;2023-03-13T01:51:49;9.40;99.90
34766;DHT22;20984;43.508;1.504;2023-03-13T01:54:28;9.40;99.90
34766;DHT22;20984;43.508;1.504;2023-03-13T01:57:12;9.40;99.90
34766;DHT22;20984;43.508;1.504;2023-03-13T01:59:44;9.40;99.90
34766;DHT22;20984;43.508;1.504;2023-03-13T02:02:12;9.40;99.90
34766;DHT22;20984;43.508;1.504;2023-03-13T02:04:46;9.40;99.90
34766;DHT22;20984;43.508;1.504;2023-03-13T02:07:18;9.40;99.90
34766;DHT22;20984;43.508;1.504;2023-03-13T02:09:47;9.40;99.90
34766;DHT22;20984;43.508;1.504;2023-03-13T02:12:42;9.30;99.90
34766;DHT22;20984;43.508;1.504;2023-03-13T02:15:15;9.40;99.90
34766;DHT22;20984;43.508;1.504;2023-03-13T02:17:41;9.40;99.90
34766;DHT22;20984;43.508;1.504;2023-03-13T02:20:09;9.30;99.90
34766;DHT22;20984;43.508;1.504;2023-03-13T02:27:50;9.30;99.90
34766;DHT22;20984;43.508;1.504;2023-03-13T02:30:17;9.40;99.90
34766;DHT22;20984;43.508;1.504;2023-03-13T02:32:43;9.40;99.90
34766;DHT22;20984;43.508;1.504;2023-03-13T02:35:13;9.40;99.90
34766;DHT22;20984;43.508;1.504;2023-03-13T02:37:41;9.40;99.90
34766;DHT22;20984;43.508;1.504;2023-03-13T02:40:10;9.40;99.90
34766;DHT22;20984;43.508;1.504;2023-03-13T02:42:40;9.40;99.90
34766;DHT22;20984;43.508;1.504;2023-03-13T02:45:06;9.40;99.90
34766;DHT22;20984;43.508;1.504;2023-03-13T02:47:32;9.40;99.90
34766;DHT22;20984;43.508;1.504;2023-03-13T02:49:58;9.40;99.90
34766;DHT22;20984;43.508;1.504;2023-03-13T02:52:27;9.40;99.90
34766;DHT22;20984;43.508;1.504;2023-03-13T02:55:00;9.40;99.90
34766;DHT22;20984;43.508;1.504;2023-03-13T02:57:27;9.40;99.90
34766;DHT22;20984;43.508;1.504;2023-03-13T02:59:53;9.50;99.90
34766;DHT22;20984;43.508;1.504;2023-03-13T03:02:19;9.50;99.90
34766;DHT22;20984;43.508;1.504;2023-03-13T03:04:45;9.60;99.90
34766;DHT22;20984;43.508;1.504;2023-03-13T03:07:11;9.60;99.90
34766;DHT22;20984;43.508;1.504;2023-03-13T03:09:36;9.60;99.90
34766;DHT22;20984;43.508;1.504;2023-03-13T03:12:02;9.60;99.90
34766;DHT22;20984;43.508;1.504;2023-03-13T03:14:28;9.70;99.90
34766;DHT22;20984;43.508;1.504;2023-03-13T03:16:53;9.70;99.90
34766;DHT22;20984;43.508;1.504;2023-03-13T03:19:19;9.70;99.90
34766;DHT22;20984;43.508;1.504;2023-03-13T03:21:45;9.80;99.90
34766;DHT22;20984;43.508;1.504;2023-03-13T03:24:11;9.80;99.90
34766;DHT22;20984;43.508;1.504;2023-03-13T03:26:37;9.90;99.90
34766;DHT22;20984;43.508;1.504;2023-03-13T03:29:02;9.90;99.90
34766;DHT22;20984;43.508;1.504;2023-03-13T03:31:29;10.00;99.90
34766;DHT22;20984;43.508;1.504;2023-03-13T03:33:55;10.00;99.90
34766;DHT22;20984;43.508;1.504;2023-03-13T03:36:22;10.00;99.90
34766;DHT22;20984;43.508;1.504;2023-03-13T03:38:48;10.00;99.90
34766;DHT22;20984;43.508;1.504;2023-03-13T03:41:14;9.90;99.90
34766;DHT22;20984;43.508;1.504;2023-03-13T03:43:40;9.90;99.90
34766;DHT22;20984;43.508;1.504;2023-03-13T03:46:06;9.90;99.90
34766;DHT22;20984;43.508;1.504;2023-03-13T03:48:32;9.80;99.90
34766;DHT22;20984;43.508;1.504;2023-03-13T03:50:58;9.80;99.90
34766;DHT22;20984;43.508;1.504;2023-03-13T03:53:24;9.80;99.90
34766;DHT22;20984;43.508;1.504;2023-03-13T03:55:50;9.80;99.90
34766;DHT22;20984;43.508;1.504;2023-03-13T03:58:16;9.80;99.90
34766;DHT22;20984;43.508;1.504;2023-03-13T04:00:46;9.80;99.90
34766;DHT22;20984;43.508;1.504;2023-03-13T04:03:12;9.80;99.90
34766;DHT22;20984;43.508;1.504;2023-03-13T04:05:38;9.90;99.90
34766;DHT22;20984;43.508;1.504;2023-03-13T04:08:04;9.90;99.90
34766;DHT22;20984;43.508;1.504;2023-03-13T04:10:30;9.90;99.90
34766;DHT22;20984;43.508;1.504;2023-03-13T04:12:56;10.10;99.90
34766;DHT22;20984;43.508;1.504;2023-03-13T04:15:22;10.10;99.90
34766;DHT22;20984;43.508;1.504;2023-03-13T04:17:47;10.10;99.90
34766;DHT22;20984;43.508;1.504;2023-03-13T04:20:13;10.10;99.90
34766;DHT22;20984;43.508;1.504;2023-03-13T04:22:40;10.10;99.90
34766;DHT22;20984;43.508;1.504;2023-03-13T04:25:06;10.00;99.90
34766;DHT22;20984;43.508;1.504;2023-03-13T04:27:33;10.00;99.90
34766;DHT22;20984;43.508;1.504;2023-03-13T04:29:59;10.00;99.90
34766;DHT22;20984;43.508;1.504;2023-03-13T04:32:25;9.90;99.90
34766;DHT22;20984;43.508;1.504;2023-03-13T04:34:50;9.90;99.90
34766;DHT22;20984;43.508;1.504;2023-03-13T04:37:16;9.90;99.90
34766;DHT22;20984;43.508;1.504;2023-03-13T04:39:42;9.80;99.90
34766;DHT22;20984;43.508;1.504;2023-03-13T04:42:10;9.80;99.90
34766;DHT22;20984;43.508;1.504;2023-03-13T04:44:36;9.80;99.90
34766;DHT22;20984;43.508;1.504;2023-03-13T04:47:02;9.80;99.90
34766;DHT22;20984;43.508;1.504;2023-03-13T04:49:28;9.80;99.90
34766;DHT22;20984;43.508;1.504;2023-03-13T04:51:53;9.80;99.90
34766;DHT22;20984;43.508;1.504;2023-03-13T04:54:19;9.80;99.90
34766;DHT22;20984;43.508;1.504;2023-03-13T04:56:45;9.90;99.90
34766;DHT22;20984;43.508;1.504;2023-03-13T04:59:11;10.00;99.90
34766;DHT22;20984;43.508;1.504;2023-03-13T05:01:37;10.00;99.90
34766;DHT22;20984;43.508;1.504;2023-03-13T05:04:03;10.20;99.90
34766;DHT22;20984;43.508;1.504;2023-03-13T05:06:29;10.20;99.90
34766;DHT22;20984;43.508;1.504;2023-03-13T05:08:55;10.20;99.90
34766;DHT22;20984;43.508;1.504;2023-03-13T05:11:21;10.20;99.90
34766;DHT22;20984;43.508;1.504;2023-03-13T05:13:47;10.20;99.90
34766;DHT22;20984;43.508;1.504;2023-03-13T05:16:12;10.20;99.90
34766;DHT22;20984;43.508;1.504;2023-03-13T05:18:38;10.20;99.90
34766;DHT22;20984;43.508;1.504;2023-03-13T05:21:04;10.30;99.90
34766;DHT22;20984;43.508;1.504;2023-03-13T05:23:30;10.30;99.90
34766;DHT22;20984;43.508;1.504;2023-03-13T05:25:56;10.20;99.90
34766;DHT22;20984;43.508;1.504;2023-03-13T05:28:21;10.20;99.90
34766;DHT22;20984;43.508;1.504;2023-03-13T05:30:47;10.30;99.90
34766;DHT22;20984;43.508;1.504;2023-03-13T05:33:13;10.30;99.90
34766;DHT22;20984;43.508;1.504;2023-03-13T05:35:38;10.40;99.90
34766;DHT22;20984;43.508;1.504;2023-03-13T05:38:04;10.50;99.90
34766;DHT22;20984;43.508;1.504;2023-03-13T05:40:30;10.50;99.90
34766;DHT22;20984;43.508;1.504;2023-03-13T05:42:55;10.60;99.90
34766;DHT22;20984;43.508;1.504;2023-03-13T05:45:21;10.70;99.90
34766;DHT22;20984;43.508;1.504;2023-03-13T05:47:47;10.70;99.90
34766;DHT22;20984;43.508;1.504;2023-03-13T05:50:12;10.70;99.90
34766;DHT22;20984;43.508;1.504;2023-03-13T05:52:38;10.80;99.90
34766;DHT22;20984;43.508;1.504;2023-03-13T05:55:04;10.80;99.90
34766;DHT22;20984;43.508;1.504;2023-03-13T05:57:30;10.80;99.90
34766;DHT22;20984;43.508;1.504;2023-03-13T05:59:55;10.90;99.90
34766;DHT22;20984;43.508;1.504;2023-03-13T06:02:21;10.90;99.90
34766;DHT22;20984;43.508;1.504;2023-03-13T06:04:47;10.90;99.90
34766;DHT22;20984;43.508;1.504;2023-03-13T06:07:12;10.90;99.90
34766;DHT22;20984;43.508;1.504;2023-03-13T06:09:38;10.90;99.90
34766;DHT22;20984;43.508;1.504;2023-03-13T06:12:06;11.00;99.90
34766;DHT22;20984;43.508;1.504;2023-03-13T06:14:32;11.00;99.90
34766;DHT22;20984;43.508;1.504;2023-03-13T06:16:57;11.10;99.90
34766;DHT22;20984;43.508;1.504;2023-03-13T06:19:23;11.20;99.90
34766;DHT22;20984;43.508;1.504;2023-03-13T06:21:49;11.10;99.90
34766;DHT22;20984;43.508;1.504;2023-03-13T06:24:15;11.20;99.90
34766;DHT22;20984;43.508;1.504;2023-03-13T06:26:41;11.20;99.90
34766;DHT22;20984;43.508;1.504;2023-03-13T06:29:07;11.20;99.90
34766;DHT22;20984;43.508;1.504;2023-03-13T06:31:33;11.20;99.90
34766;DHT22;20984;43.508;1.504;2023-03-13T06:33:58;11.10;99.90
34766;DHT22;20984;43.508;1.504;2023-03-13T06:36:24;11.10;99.90
34766;DHT22;20984;43.508;1.504;2023-03-13T06:38:50;11.00;99.90
34766;DHT22;20984;43.508;1.504;2023-03-13T06:41:16;11.00;99.90
34766;DHT22;20984;43.508;1.504;2023-03-13T06:43:42;10.90;99.90
34766;DHT22;20984;43.508;1.504;2023-03-13T06:46:08;10.90;99.90
34766;DHT22;20984;43.508;1.504;2023-03-13T06:48:37;10.80;99.90
34766;DHT22;20984;43.508;1.504;2023-03-13T06:51:03;10.80;99.90
34766;DHT22;20984;43.508;1.504;2023-03-13T06:53:29;10.70;99.90
34766;DHT22;20984;43.508;1.504;2023-03-13T06:55:54;10.70;99.90
34766;DHT22;20984;43.508;1.504;2023-03-13T06:58:20;10.70;99.90
34766;DHT22;20984;43.508;1.504;2023-03-13T07:00:45;10.70;99.90
34766;DHT22;20984;43.508;1.504;2023-03-13T07:03:11;10.80;99.90
34766;DHT22;20984;43.508;1.504;2023-03-13T07:05:38;10.90;99.90
34766;DHT22;20984;43.508;1.504;2023-03-13T07:08:04;11.00;99.90
34766;DHT22;20984;43.508;1.504;2023-03-13T07:10:30;11.00;99.90
34766;DHT22;20984;43.508;1.504;2023-03-13T07:12:56;11.10;99.90
34766;DHT22;20984;43.508;1.504;2023-03-13T07:15:22;11.20;99.90
34766;DHT22;20984;43.508;1.504;2023-03-13T07:17:47;11.30;99.90
34766;DHT22;20984;43.508;1.504;2023-03-13T07:20:13;11.40;99.90
34766;DHT22;20984;43.508;1.504;2023-03-13T07:22:39;11.60;99.90
34766;DHT22;20984;43.508;1.504;2023-03-13T07:25:05;11.70;99.90
34766;DHT22;20984;43.508;1.504;2023-03-13T07:27:31;11.80;99.90
34766;DHT22;20984;43.508;1.504;2023-03-13T07:29:57;11.90;99.90
34766;DHT22;20984;43.508;1.504;2023-03-13T07:32:22;11.90;99.90
34766;DHT22;20984;43.508;1.504;2023-03-13T07:34:48;11.90;99.90
34766;DHT22;20984;43.508;1.504;2023-03-13T07:37:14;11.90;99.90
34766;DHT22;20984;43.508;1.504;2023-03-13T07:39:41;11.90;99.90
34766;DHT22;20984;43.508;1.504;2023-03-13T07:42:09;12.00;99.90
34766;DHT22;20984;43.508;1.504;2023-03-13T07:44:35;12.00;99.90
34766;DHT22;20984;43.508;1.504;2023-03-13T07:47:01;12.10;99.90
34766;DHT22;20984;43.508;1.504;2023-03-13T07:49:27;12.20;99.90
34766;DHT22;20984;43.508;1.504;2023-03-13T07:51:52;12.30;99.90
34766;DHT22;20984;43.508;1.504;2023-03-13T07:54:18;12.40;99.90
34766;DHT22;20984;43.508;1.504;2023-03-13T07:56:44;12.40;99.90
34766;DHT22;20984;43.508;1.504;2023-03-13T07:59:09;12.40;99.90
34766;DHT22;20984;43.508;1.504;2023-03-13T08:01:35;12.50;99.90
34766;DHT22;20984;43.508;1.504;2023-03-13T08:04:01;12.70;99.90
34766;DHT22;20984;43.508;1.504;2023-03-13T08:06:32;12.80;99.90
34766;DHT22;20984;43.508;1.504;2023-03-13T08:09:00;13.00;99.90
34766;DHT22;20984;43.508;1.504;2023-03-13T08:11:27;13.10;99.90
34766;DHT22;20984;43.508;1.504;2023-03-13T08:13:54;13.20;99.90
34766;DHT22;20984;43.508;1.504;2023-03-13T08:16:26;13.40;99.90
34766;DHT22;20984;43.508;1.504;2023-03-13T08:18:53;13.50;99.90
34766;DHT22;20984;43.508;1.504;2023-03-13T08:21:22;13.70;99.90
34766;DHT22;20984;43.508;1.504;2023-03-13T08:23:51;13.80;99.90
34766;DHT22;20984;43.508;1.504;2023-03-13T08:26:19;13.90;99.90
34766;DHT22;20984;43.508;1.504;2023-03-13T08:28:47;14.00;99.90
34766;DHT22;20984;43.508;1.504;2023-03-13T08:33:41;14.40;99.90
34766;DHT22;20984;43.508;1.504;2023-03-13T08:38:38;14.70;99.90
34766;DHT22;20984;43.508;1.504;2023-03-13T08:41:06;14.80;99.90
34766;DHT22;20984;43.508;1.504;2023-03-13T08:43:32;15.00;99.90
34766;DHT22;20984;43.508;1.504;2023-03-13T08:45:58;15.20;99.90
34766;DHT22;20984;43.508;1.504;2023-03-13T08:48:23;15.40;99.90
34766;DHT22;20984;43.508;1.504;2023-03-13T08:51:03;15.50;99.90
34766;DHT22;20984;43.508;1.504;2023-03-13T08:53:30;15.60;99.90
34766;DHT22;20984;43.508;1.504;2023-03-13T08:55:56;15.70;99.90
34766;DHT22;20984;43.508;1.504;2023-03-13T08:58:21;15.80;99.90
34766;DHT22;20984;43.508;1.504;2023-03-13T09:00:47;15.90;99.90
34766;DHT22;20984;43.508;1.504;2023-03-13T09:03:13;15.90;99.90
34766;DHT22;20984;43.508;1.504;2023-03-13T09:05:38;16.00;99.90
34766;DHT22;20984;43.508;1.504;2023-03-13T09:08:04;15.90;99.90
34766;DHT22;20984;43.508;1.504;2023-03-13T09:10:33;15.90;99.90
34766;DHT22;20984;43.508;1.504;2023-03-13T09:13:00;15.90;99.90
34766;DHT22;20984;43.508;1.504;2023-03-13T09:15:25;15.90;99.90
34766;DHT22;20984;43.508;1.504;2023-03-13T09:17:51;15.90;99.90
34766;DHT22;20984;43.508;1.504;2023-03-13T09:20:17;16.00;99.90
34766;DHT22;20984;43.508;1.504;2023-03-13T09:22:45;16.10;99.90
34766;DHT22;20984;43.508;1.504;2023-03-13T09:25:12;16.20;99.90
34766;DHT22;20984;43.508;1.504;2023-03-13T09:27:38;16.30;99.90
34766;DHT22;20984;43.508;1.504;2023-03-13T09:30:05;16.50;99.90
34766;DHT22;20984;43.508;1.504;2023-03-13T09:32:32;16.60;99.90
34766;DHT22;20984;43.508;1.504;2023-03-13T09:34:57;16.60;99.90
34766;DHT22;20984;43.508;1.504;2023-03-13T09:37:24;16.70;99.90
34766;DHT22;20984;43.508;1.504;2023-03-13T09:39:50;16.70;99.90
34766;DHT22;20984;43.508;1.504;2023-03-13T09:42:21;16.80;99.90
34766;DHT22;20984;43.508;1.504;2023-03-13T09:45:00;16.90;99.90
34766;DHT22;20984;43.508;1.504;2023-03-13T09:47:38;16.90;99.90
34766;DHT22;20984;43.508;1.504;2023-03-13T09:50:20;17.00;99.90
34766;DHT22;20984;43.508;1.504;2023-03-13T09:52:52;17.00;99.90
34766;DHT22;20984;43.508;1.504;2023-03-13T09:55:23;17.10;99.90
34766;DHT22;20984;43.508;1.504;2023-03-13T09:57:57;17.10;99.90
34766;DHT22;20984;43.508;1.504;2023-03-13T10:00:34;17.20;99.90
34766;DHT22;20984;43.508;1.504;2023-03-13T10:05:37;17.40;99.90
34766;DHT22;20984;43.508;1.504;2023-03-13T10:08:15;17.50;99.90
34766;DHT22;20984;43.508;1.504;2023-03-13T10:10:52;17.60;99.90
34766;DHT22;20984;43.508;1.504;2023-03-13T10:16:30;17.70;99.90
34766;DHT22;20984;43.508;1.504;2023-03-13T10:18:58;17.70;99.90
34766;DHT22;20984;43.508;1.504;2023-03-13T10:21:30;17.70;99.90
34766;DHT22;20984;43.508;1.504;2023-03-13T10:26:47;17.70;99.90
34766;DHT22;20984;43.508;1.504;2023-03-13T10:29:21;17.70;99.90
34766;DHT22;20984;43.508;1.504;2023-03-13T10:34:23;17.80;99.90
34766;DHT22;20984;43.508;1.504;2023-03-13T10:36:54;17.90;99.90
34766;DHT22;20984;43.508;1.504;2023-03-13T10:39:24;17.90;99.90
34766;DHT22;20984;43.508;1.504;2023-03-13T10:41:56;18.00;99.90
34766;DHT22;20984;43.508;1.504;2023-03-13T10:44:28;17.90;99.90
34766;DHT22;20984;43.508;1.504;2023-03-13T10:46:59;17.90;99.90
34766;DHT22;20984;43.508;1.504;2023-03-13T10:49:25;17.90;99.90
34766;DHT22;20984;43.508;1.504;2023-03-13T10:51:56;17.90;99.90
34766;DHT22;20984;43.508;1.504;2023-03-13T10:54:30;17.90;99.90
34766;DHT22;20984;43.508;1.504;2023-03-13T10:59:48;18.00;99.90
34766;DHT22;20984;43.508;1.504;2023-03-13T11:02:30;18.00;99.90
34766;DHT22;20984;43.508;1.504;2023-03-13T11:04:57;18.00;99.90
34766;DHT22;20984;43.508;1.504;2023-03-13T11:07:35;18.10;99.90
34766;DHT22;20984;43.508;1.504;2023-03-13T11:12:48;18.10;99.90
34766;DHT22;20984;43.508;1.504;2023-03-13T11:15:30;18.20;99.90
34766;DHT22;20984;43.508;1.504;2023-03-13T11:18:21;18.30;99.90
34766;DHT22;20984;43.508;1.504;2023-03-13T11:20:48;18.40;99.90
34766;DHT22;20984;43.508;1.504;2023-03-13T11:23:36;18.50;99.90
34766;DHT22;20984;43.508;1.504;2023-03-13T11:26:30;18.50;99.90
34766;DHT22;20984;43.508;1.504;2023-03-13T11:29:01;18.60;99.90
34766;DHT22;20984;43.508;1.504;2023-03-13T11:31:40;18.60;99.90
34766;DHT22;20984;43.508;1.504;2023-03-13T11:42:34;18.80;99.90
34766;DHT22;20984;43.508;1.504;2023-03-13T11:48:16;18.80;99.90
34766;DHT22;20984;43.508;1.504;2023-03-13T11:51:04;18.90;99.90
34766;DHT22;20984;43.508;1.504;2023-03-13T11:53:40;19.00;99.90
34766;DHT22;20984;43.508;1.504;2023-03-13T12:01:13;19.10;99.90
34766;DHT22;20984;43.508;1.504;2023-03-13T12:06:28;19.30;99.90
34766;DHT22;20984;43.508;1.504;2023-03-13T12:11:37;19.40;99.90
34766;DHT22;20984;43.508;1.504;2023-03-13T12:17:41;19.50;99.90
34766;DHT22;20984;43.508;1.504;2023-03-13T12:22:56;19.60;99.90
34766;DHT22;20984;43.508;1.504;2023-03-13T12:25:24;19.80;99.90
34766;DHT22;20984;43.508;1.504;2023-03-13T12:30:41;19.80;99.90
34766;DHT22;20984;43.508;1.504;2023-03-13T12:36:35;19.90;99.90
34766;DHT22;20984;43.508;1.504;2023-03-13T12:38:50;19.80;99.90
34766;DHT22;20984;43.508;1.504;2023-03-13T12:41:37;19.90;99.90
34766;DHT22;20984;43.508;1.504;2023-03-13T12:44:08;19.90;99.90
34766;DHT22;20984;43.508;1.504;2023-03-13T12:47:08;19.70;99.90
34766;DHT22;20984;43.508;1.504;2023-03-13T12:49:42;19.70;99.90
34766;DHT22;20984;43.508;1.504;2023-03-13T12:58:11;19.70;99.90
34766;DHT22;20984;43.508;1.504;2023-03-13T13:00:41;19.80;99.90
34766;DHT22;20984;43.508;1.504;2023-03-13T13:08:42;19.70;99.90
34766;DHT22;20984;43.508;1.504;2023-03-13T13:16:30;19.70;99.90
34766;DHT22;20984;43.508;1.504;2023-03-13T13:24:52;19.30;99.90
34766;DHT22;20984;43.508;1.504;2023-03-13T13:29:57;19.40;99.90
34766;DHT22;20984;43.508;1.504;2023-03-13T13:32:35;19.20;99.90
34766;DHT22;20984;43.508;1.504;2023-03-13T13:37:39;19.10;99.90
34766;DHT22;20984;43.508;1.504;2023-03-13T13:40:23;19.10;99.90
34766;DHT22;20984;43.508;1.504;2023-03-13T13:47:48;19.30;99.90
34766;DHT22;20984;43.508;1.504;2023-03-13T13:50:24;19.30;99.90
34766;DHT22;20984;43.508;1.504;2023-03-13T13:52:50;19.20;99.90
34766;DHT22;20984;43.508;1.504;2023-03-13T13:55:40;19.20;99.90
34766;DHT22;20984;43.508;1.504;2023-03-13T13:58:32;19.30;99.90
34766;DHT22;20984;43.508;1.504;2023-03-13T14:01:04;19.40;99.90
34766;DHT22;20984;43.508;1.504;2023-03-13T14:03:38;19.40;99.90
34766;DHT22;20984;43.508;1.504;2023-03-13T14:06:28;19.50;99.90
34766;DHT22;20984;43.508;1.504;2023-03-13T14:09:10;19.70;99.90
34766;DHT22;20984;43.508;1.504;2023-03-13T14:11:38;19.80;99.90
34766;DHT22;20984;43.508;1.504;2023-03-13T14:14:19;19.80;99.90
34766;DHT22;20984;43.508;1.504;2023-03-13T14:16:50;19.90;99.90
34766;DHT22;20984;43.508;1.504;2023-03-13T14:19:20;19.80;99.90
34766;DHT22;20984;43.508;1.504;2023-03-13T14:21:46;19.70;99.90
34766;DHT22;20984;43.508;1.504;2023-03-13T14:24:13;19.60;99.90
34766;DHT22;20984;43.508;1.504;2023-03-13T14:26:41;19.50;99.90
34766;DHT22;20984;43.508;1.504;2023-03-13T14:29:15;19.60;99.90
34766;DHT22;20984;43.508;1.504;2023-03-13T14:31:50;19.60;99.90
34766;DHT22;20984;43.508;1.504;2023-03-13T14:34:16;19.50;99.90
34766;DHT22;20984;43.508;1.504;2023-03-13T14:36:50;19.60;99.90
34766;DHT22;20984;43.508;1.504;2023-03-13T14:39:19;19.60;99.90
34766;DHT22;20984;43.508;1.504;2023-03-13T14:41:47;19.60;99.90
34766;DHT22;20984;43.508;1.504;2023-03-13T14:44:25;19.50;99.90
34766;DHT22;20984;43.508;1.504;2023-03-13T14:46:58;19.40;99.90
34766;DHT22;20984;43.508;1.504;2023-03-13T14:49:26;19.50;99.90
34766;DHT22;20984;43.508;1.504;2023-03-13T14:52:01;19.40;99.90
34766;DHT22;20984;43.508;1.504;2023-03-13T14:54:32;19.50;99.90
34766;DHT22;20984;43.508;1.504;2023-03-13T14:57:18;19.40;99.90
34766;DHT22;20984;43.508;1.504;2023-03-13T14:59:45;19.30;99.90
34766;DHT22;20984;43.508;1.504;2023-03-13T15:02:13;19.40;99.90
34766;DHT22;20984;43.508;1.504;2023-03-13T15:07:47;19.20;99.90
34766;DHT22;20984;43.508;1.504;2023-03-13T15:10:34;19.30;99.90
34766;DHT22;20984;43.508;1.504;2023-03-13T15:15:47;19.50;99.90
34766;DHT22;20984;43.508;1.504;2023-03-13T15:18:24;19.50;99.90
34766;DHT22;20984;43.508;1.504;2023-03-13T15:20:53;19.50;99.90
34766;DHT22;20984;43.508;1.504;2023-03-13T15:23:19;19.50;99.90
34766;DHT22;20984;43.508;1.504;2023-03-13T15:25:46;19.40;99.90
34766;DHT22;20984;43.508;1.504;2023-03-13T15:28:18;19.50;99.90
34766;DHT22;20984;43.508;1.504;2023-03-13T15:30:46;19.50;99.90
34766;DHT22;20984;43.508;1.504;2023-03-13T15:33:14;19.50;99.90
34766;DHT22;20984;43.508;1.504;2023-03-13T15:35:41;19.50;99.90
34766;DHT22;20984;43.508;1.504;2023-03-13T15:38:12;19.40;99.90
34766;DHT22;20984;43.508;1.504;2023-03-13T15:40:38;19.40;99.90
34766;DHT22;20984;43.508;1.504;2023-03-13T15:43:04;19.50;99.90
34766;DHT22;20984;43.508;1.504;2023-03-13T15:45:30;19.70;99.90
34766;DHT22;20984;43.508;1.504;2023-03-13T15:47:56;19.70;99.90
34766;DHT22;20984;43.508;1.504;2023-03-13T15:50:22;19.70;99.90
34766;DHT22;20984;43.508;1.504;2023-03-13T15:52:54;19.90;99.90
34766;DHT22;20984;43.508;1.504;2023-03-13T15:55:20;20.40;99.90
34766;DHT22;20984;43.508;1.504;2023-03-13T15:57:48;21.10;99.90
34766;DHT22;20984;43.508;1.504;2023-03-13T16:00:23;21.60;99.90
34766;DHT22;20984;43.508;1.504;2023-03-13T16:02:49;21.90;99.90
34766;DHT22;20984;43.508;1.504;2023-03-13T16:05:16;21.80;99.90
34766;DHT22;20984;43.508;1.504;2023-03-13T16:07:42;21.50;99.90
34766;DHT22;20984;43.508;1.504;2023-03-13T16:10:23;20.80;99.90
34766;DHT22;20984;43.508;1.504;2023-03-13T16:12:48;20.30;99.90
34766;DHT22;20984;43.508;1.504;2023-03-13T16:15:14;20.10;99.90
34766;DHT22;20984;43.508;1.504;2023-03-13T16:17:40;19.80;99.90
34766;DHT22;20984;43.508;1.504;2023-03-13T16:20:13;19.40;99.90
34766;DHT22;20984;43.508;1.504;2023-03-13T16:22:40;18.80;99.90
34766;DHT22;20984;43.508;1.504;2023-03-13T16:25:07;18.30;99.90
34766;DHT22;20984;43.508;1.504;2023-03-13T16:27:33;18.00;99.90
34766;DHT22;20984;43.508;1.504;2023-03-13T16:29:59;17.70;99.90
34766;DHT22;20984;43.508;1.504;2023-03-13T16:32:26;17.50;99.90
34766;DHT22;20984;43.508;1.504;2023-03-13T16:34:52;17.30;99.90
34766;DHT22;20984;43.508;1.504;2023-03-13T16:37:19;17.20;99.90
34766;DHT22;20984;43.508;1.504;2023-03-13T16:39:46;17.10;99.90
34766;DHT22;20984;43.508;1.504;2023-03-13T16:42:12;17.10;99.90
34766;DHT22;20984;43.508;1.504;2023-03-13T16:44:38;17.00;99.90
34766;DHT22;20984;43.508;1.504;2023-03-13T16:47:20;17.00;99.90
34766;DHT22;20984;43.508;1.504;2023-03-13T16:49:46;17.00;99.90
34766;DHT22;20984;43.508;1.504;2023-03-13T16:52:16;17.00;99.90
34766;DHT22;20984;43.508;1.504;2023-03-13T16:54:43;17.10;99.90
34766;DHT22;20984;43.508;1.504;2023-03-13T16:57:22;17.10;99.90
34766;DHT22;20984;43.508;1.504;2023-03-13T16:59:48;17.00;99.90
34766;DHT22;20984;43.508;1.504;2023-03-13T17:02:15;16.90;99.90
34766;DHT22;20984;43.508;1.504;2023-03-13T17:04:42;16.80;99.90
34766;DHT22;20984;43.508;1.504;2023-03-13T17:07:24;16.80;99.90
34766;DHT22;20984;43.508;1.504;2023-03-13T17:09:51;16.70;99.90
34766;DHT22;20984;43.508;1.504;2023-03-13T17:12:17;16.60;99.90
34766;DHT22;20984;43.508;1.504;2023-03-13T17:14:43;16.50;99.90
34766;DHT22;20984;43.508;1.504;2023-03-13T17:17:16;16.40;99.90
34766;DHT22;20984;43.508;1.504;2023-03-13T17:19:42;16.40;99.90
34766;DHT22;20984;43.508;1.504;2023-03-13T17:22:12;16.40;99.90
34766;DHT22;20984;43.508;1.504;2023-03-13T17:24:38;16.30;99.90
34766;DHT22;20984;43.508;1.504;2023-03-13T17:27:04;16.30;99.90